createdAt,value
2022-10-04T08:32:54.999Z,101187.47
2022-10-04T08:35:50.621Z,101181.72
2022-10-04T08:38:34.664Z,101177.94
2022-10-04T08:41:37.656Z,101184.41
2022-10-04T08:44:33.658Z,101176.91
2022-10-04T08:47:35.283Z,101174.28
2022-10-04T08:50:38.678Z,101167.75
2022-10-04T08:53:48.872Z,101140.22
2022-10-04T08:56:26.203Z,101158.25
2022-10-04T08:59:30.253Z,101159.97
2022-10-04T09:02:52.564Z,101155.97
2022-10-04T09:05:39.628Z,101162.66
2022-10-04T09:08:41.267Z,101165.47
2022-10-04T09:11:45.525Z,101170.53
2022-10-04T09:14:51.500Z,101166.72
2022-10-04T09:17:25.753Z,101168.28
2022-10-04T09:20:13.889Z,101165.53
2022-10-04T09:22:59.941Z,101165.44
2022-10-04T09:25:50.572Z,101159.81
2022-10-04T09:28:42.280Z,101150.06
2022-10-04T09:31:30.381Z,101155.16
2022-10-04T09:34:23.918Z,101159.94
2022-10-04T09:37:31.228Z,101159.97
2022-10-04T09:40:34.909Z,101158.63
2022-10-04T09:43:19.220Z,101165.84
2022-10-04T09:46:09.205Z,101152.97
2022-10-04T09:48:43.680Z,101153.69
2022-10-04T09:51:26.964Z,101156.59
2022-10-04T09:54:13.566Z,101151.72
2022-10-04T09:57:07.550Z,101150.56
2022-10-04T10:00:03.541Z,101144.31
2022-10-04T10:03:27.911Z,101157.34
2022-10-04T10:06:22.359Z,101152.22
2022-10-04T10:09:04.095Z,101143.03
2022-10-04T10:11:59.480Z,101147.78
2022-10-04T10:15:00.696Z,101145.78
2022-10-04T10:17:40.750Z,101145.78
2022-10-04T10:20:33.661Z,101146.00
2022-10-04T10:23:36.519Z,101138.38
2022-10-04T10:26:25.911Z,101135.09
2022-10-04T10:29:15.223Z,101141.38
2022-10-04T10:32:02.014Z,101146.59
2022-10-04T10:35:12.276Z,101142.75
2022-10-04T10:37:54.460Z,101136.41
2022-10-04T10:40:41.552Z,101135.47
2022-10-04T10:43:24.202Z,101136.59
2022-10-04T10:46:06.372Z,101139.97
2022-10-04T10:48:54.652Z,101140.88
2022-10-04T10:51:44.622Z,101135.34
2022-10-04T10:54:40.128Z,101129.75
2022-10-04T10:57:23.568Z,101127.38
2022-10-04T11:00:17.686Z,101134.69
2022-10-04T11:03:24.705Z,101122.44
2022-10-04T11:06:17.383Z,101122.53
2022-10-04T11:09:30.074Z,101118.84
2022-10-04T11:12:39.642Z,101113.56
2022-10-04T11:15:40.124Z,101116.66
2022-10-04T11:19:00.658Z,101093.84
2022-10-04T11:22:07.735Z,101109.69
2022-10-04T11:25:03.182Z,101101.69
2022-10-04T11:27:49.303Z,101095.59
2022-10-04T11:30:24.994Z,101098.03
2022-10-04T11:33:11.226Z,101101.38
2022-10-04T11:36:19.112Z,101097.19
2022-10-04T11:39:35.608Z,101094.31
2022-10-04T11:42:19.200Z,101094.94
2022-10-04T11:45:18.269Z,101090.47
2022-10-04T11:48:02.489Z,101099.94
2022-10-04T11:50:40.462Z,101092.44
2022-10-04T11:53:48.318Z,101080.66
2022-10-04T11:56:34.148Z,101090.66
2022-10-04T11:59:12.241Z,101097.13
2022-10-04T12:02:25.594Z,101085.06
2022-10-04T12:05:27.911Z,101096.13
2022-10-04T12:08:11.842Z,101088.56
2022-10-04T12:10:41.891Z,101088.31
2022-10-04T12:13:51.094Z,101092.06
2022-10-04T12:16:41.804Z,101088.56
2022-10-04T12:19:41.363Z,101084.56
2022-10-04T12:22:24.880Z,101087.84
2022-10-04T12:25:16.378Z,101091.06
2022-10-04T12:28:17.456Z,101091.88
2022-10-04T12:31:08.529Z,101088.97
2022-10-04T12:33:46.328Z,101084.09
2022-10-04T12:36:40.314Z,101095.16
2022-10-04T12:39:24.472Z,101086.81
2022-10-04T12:42:06.757Z,101075.81
2022-10-04T12:44:48.843Z,101066.94
2022-10-04T12:47:45.521Z,101067.53
2022-10-04T12:50:27.863Z,101067.75
2022-10-04T12:53:08.973Z,101064.31
2022-10-04T12:55:55.860Z,101062.19
2022-10-04T12:58:30.347Z,101056.56
2022-10-04T13:01:11.860Z,101060.06
2022-10-04T13:04:03.867Z,101052.31
2022-10-04T13:06:43.537Z,101047.25
2022-10-04T13:09:19.083Z,101033.00
2022-10-04T13:12:02.335Z,101037.03
2022-10-04T13:14:48.732Z,101021.72
2022-10-04T13:17:35.393Z,101025.78
2022-10-04T13:20:26.431Z,101016.66
2022-10-04T13:23:00.398Z,101019.34
2022-10-04T13:25:46.564Z,101019.34
2022-10-04T13:28:24.761Z,101029.03
2022-10-04T13:31:01.017Z,101033.31
2022-10-04T13:33:39.224Z,101034.41
2022-10-04T13:36:12.644Z,101036.81
2022-10-04T13:39:07.734Z,101039.22
2022-10-04T13:41:49.529Z,101037.63
2022-10-04T13:44:46.049Z,101030.13
2022-10-04T13:47:46.848Z,101039.28
2022-10-04T13:50:39.291Z,101028.00
2022-10-04T13:53:45.606Z,101030.19
2022-10-04T13:56:43.592Z,101022.44
2022-10-04T13:59:23.020Z,101021.59
2022-10-04T14:02:17.656Z,101018.91
2022-10-04T14:05:29.599Z,101017.84
2022-10-04T14:08:28.067Z,101007.09
2022-10-04T14:11:28.733Z,101008.97
2022-10-04T14:14:44.901Z,101002.53
2022-10-04T14:17:50.200Z,100985.84
2022-10-04T14:21:00.295Z,100988.00
2022-10-04T14:23:54.783Z,100980.50
2022-10-04T14:27:03.354Z,100981.84
2022-10-04T14:30:08.217Z,100981.84
2022-10-04T14:33:16.686Z,100971.03
2022-10-04T14:35:53.237Z,100966.22
2022-10-04T14:38:41.639Z,100953.53
2022-10-04T14:41:58.950Z,100959.97
2022-10-04T14:44:45.387Z,100961.88
2022-10-04T14:47:43.127Z,100948.94
2022-10-04T14:50:32.244Z,100950.81
2022-10-04T14:53:11.730Z,100943.81
2022-10-04T14:56:07.765Z,100948.38
2022-10-04T14:58:44.006Z,100962.91
2022-10-04T15:01:22.133Z,100966.66
2022-10-04T15:04:14.107Z,100965.00
2022-10-04T15:06:50.132Z,100967.16
2022-10-04T15:09:56.138Z,100961.78
2022-10-04T15:13:10.668Z,100952.38
2022-10-04T15:16:00.696Z,100954.50
2022-10-04T15:18:38.500Z,100960.69
2022-10-04T15:21:21.342Z,100955.00
2022-10-04T15:23:58.909Z,100957.13
2022-10-04T15:26:51.967Z,100965.47
2022-10-04T15:29:27.475Z,100957.63
2022-10-04T15:32:07.822Z,100955.22
2022-10-04T15:34:43.084Z,100955.75
2022-10-04T15:37:27.967Z,100954.63
2022-10-04T15:40:17.042Z,100957.56
2022-10-04T15:43:05.882Z,100955.63
2022-10-04T15:46:03.592Z,100949.94
2022-10-04T15:48:50.889Z,100948.00
2022-10-04T15:51:49.209Z,100945.28
2022-10-04T15:54:58.453Z,100942.28
2022-10-04T15:57:37.577Z,100943.63
2022-10-04T16:00:14.060Z,100942.25
2022-10-04T16:03:15.260Z,100930.16
2022-10-04T16:05:47.561Z,100940.31
2022-10-04T16:08:30.505Z,100947.25
2022-10-04T16:11:12.751Z,100950.44
2022-10-04T16:14:12.759Z,100947.72
2022-10-04T16:17:02.204Z,100950.66
2022-10-04T16:19:49.963Z,100947.41
2022-10-04T16:22:21.275Z,100947.09
2022-10-04T16:24:53.823Z,100942.25
2022-10-04T16:27:51.357Z,100944.34
2022-10-04T16:30:31.608Z,100944.88
2022-10-04T16:33:25.904Z,100951.00
2022-10-04T16:36:08.930Z,100957.91
2022-10-04T16:39:05.812Z,100958.66
2022-10-04T16:41:41.098Z,100961.88
2022-10-04T16:44:26.095Z,100968.53
2022-10-04T16:47:00.178Z,100965.78
2022-10-04T16:49:38.850Z,100975.13
2022-10-04T16:52:36.182Z,100993.81
2022-10-04T16:55:25.026Z,100987.56
2022-10-04T16:58:26.475Z,100995.31
2022-10-04T17:01:34.391Z,100996.06
2022-10-04T17:04:23.527Z,100998.16
2022-10-04T17:06:58.157Z,101004.59
2022-10-04T17:09:31.160Z,101004.84
2022-10-04T17:12:12.922Z,101008.59
2022-10-04T17:15:07.284Z,101004.50
2022-10-04T17:17:46.167Z,101005.84
2022-10-04T17:20:35.488Z,101013.28
2022-10-04T17:23:21.819Z,100995.59
2022-10-04T17:26:01.055Z,100989.09
2022-10-04T17:28:31.441Z,100984.25
2022-10-04T17:31:10.962Z,100982.03
2022-10-04T17:33:53.749Z,101003.41
2022-10-04T17:36:35.862Z,101006.00
2022-10-04T17:39:26.869Z,101010.22
2022-10-04T17:42:08.518Z,101015.25
2022-10-04T17:44:46.786Z,101016.81
2022-10-04T17:47:24.142Z,101023.94
2022-10-04T17:50:19.192Z,101029.81
2022-10-04T17:53:12.722Z,101029.47
2022-10-04T17:55:47.995Z,101031.81
2022-10-04T17:58:19.919Z,101032.31
2022-10-04T18:01:00.844Z,101031.97
2022-10-04T18:03:39.125Z,101030.59
2022-10-04T18:06:18.731Z,101034.78
2022-10-04T18:08:56.776Z,101026.41
2022-10-04T18:11:32.409Z,101027.13
2022-10-04T18:14:06.253Z,101027.84
2022-10-04T18:16:48.559Z,101018.44
2022-10-04T18:19:40.217Z,101009.03
2022-10-04T18:22:15.099Z,100998.81
2022-10-04T18:24:46.822Z,100988.00
2022-10-04T18:27:21.314Z,100982.88
2022-10-04T18:30:00.985Z,100974.75
2022-10-04T18:32:35.069Z,100968.25
2022-10-04T18:35:19.350Z,100963.84
2022-10-04T18:37:47.438Z,100959.00
2022-10-04T18:40:19.002Z,100950.63
2022-10-04T18:42:54.059Z,100956.22
2022-10-04T18:45:25.721Z,100952.41
2022-10-04T18:47:55.361Z,100951.81
2022-10-04T18:50:39.404Z,100955.53
2022-10-04T18:53:28.126Z,100966.25
2022-10-04T18:56:03.648Z,100961.94
2022-10-04T18:59:11.571Z,100971.03
2022-10-04T19:02:04.252Z,100964.88
2022-10-04T19:04:45.786Z,100956.16
2022-10-04T19:07:17.220Z,100978.47
2022-10-04T19:10:04.861Z,100981.41
2022-10-04T19:12:44.471Z,100979.53
2022-10-04T19:15:37.864Z,100982.81
2022-10-04T19:18:20.950Z,100975.81
2022-10-04T19:20:56.239Z,100980.94
2022-10-04T19:23:33.791Z,100975.00
2022-10-04T19:26:32.074Z,100972.09
2022-10-04T19:29:13.647Z,100967.56
2022-10-04T19:31:52.492Z,100968.38
2022-10-04T19:34:29.003Z,100964.28
2022-10-04T19:37:02.243Z,100966.75
2022-10-04T19:39:43.409Z,100968.38
2022-10-04T19:42:15.174Z,100961.38
2022-10-04T19:45:00.090Z,100956.84
2022-10-04T19:47:40.651Z,100957.66
2022-10-04T19:50:19.535Z,100954.97
2022-10-04T19:52:54.098Z,100956.50
2022-10-04T19:55:33.110Z,100963.47
2022-10-04T19:58:14.752Z,100961.38
2022-10-04T20:00:44.193Z,100959.75
2022-10-04T20:03:13.431Z,100959.19
2022-10-04T20:05:46.909Z,100955.44
2022-10-04T20:08:16.671Z,100956.50
2022-10-04T20:10:45.601Z,100961.84
2022-10-04T20:13:25.914Z,100953.56
2022-10-04T20:15:58.740Z,100960.59
2022-10-04T20:19:00.502Z,100955.22
2022-10-04T20:21:32.185Z,100957.31
2022-10-04T20:24:02.171Z,100953.03
2022-10-04T20:26:54.962Z,100950.09
2022-10-04T20:30:04.930Z,100942.06
2022-10-04T20:33:00.014Z,100942.88
2022-10-04T20:36:05.295Z,100945.56
2022-10-04T20:38:53.657Z,100950.09
2022-10-04T20:42:01.820Z,100951.16
2022-10-04T20:44:54.282Z,100942.56
2022-10-04T20:47:42.147Z,100945.25
2022-10-04T20:50:26.673Z,100942.56
2022-10-04T20:52:59.189Z,100947.31
2022-10-04T20:55:29.553Z,100950.00
2022-10-04T20:58:00.995Z,100948.38
2022-10-04T21:00:33.994Z,100956.41
2022-10-04T21:03:17.924Z,100946.25
2022-10-04T21:06:01.119Z,100945.72
2022-10-04T21:08:30.532Z,100945.72
2022-10-04T21:11:23.931Z,100943.59
2022-10-04T21:13:58.367Z,100936.63
2022-10-04T21:16:44.559Z,100933.94
2022-10-04T21:19:45.299Z,100940.09
2022-10-04T21:22:36.681Z,100944.66
2022-10-04T21:25:21.897Z,100943.84
2022-10-04T21:27:49.862Z,100941.41
2022-10-04T21:30:19.619Z,100934.44
2022-10-04T21:32:48.067Z,100938.94
2022-10-04T21:35:16.033Z,100943.50
2022-10-04T21:37:45.908Z,100950.97
2022-10-04T21:40:14.349Z,100948.28
2022-10-04T21:42:42.564Z,100937.81
2022-10-04T21:45:11.234Z,100936.19
2022-10-04T21:47:39.195Z,100944.00
2022-10-04T21:50:08.359Z,100932.47
2022-10-04T21:52:36.335Z,100931.16
2022-10-04T21:55:11.004Z,100930.91
2022-10-04T21:57:38.967Z,100935.47
2022-10-04T22:00:09.091Z,100937.13
2022-10-04T22:02:37.686Z,100932.56
2022-10-04T22:05:06.092Z,100925.34
2022-10-04T22:07:34.178Z,100936.06
2022-10-04T22:10:02.618Z,100931.50
2022-10-04T22:12:32.018Z,100944.66
2022-10-04T22:15:00.700Z,100940.34
2022-10-04T22:17:28.782Z,100933.94
2022-10-04T22:19:56.748Z,100932.31
2022-10-04T22:22:25.546Z,100932.31
2022-10-04T22:24:53.512Z,100930.69
2022-10-04T22:27:21.949Z,100924.66
2022-10-04T22:29:51.831Z,100936.06
2022-10-04T22:32:24.722Z,100936.63
2022-10-04T22:34:54.357Z,100936.88
2022-10-04T22:37:25.561Z,100929.09
2022-10-04T22:39:54.608Z,100932.78
2022-10-04T22:42:28.926Z,100921.28
2022-10-04T22:45:00.141Z,100930.13
2022-10-04T22:47:28.929Z,100919.66
2022-10-04T22:49:57.729Z,100910.81
2022-10-04T22:52:27.493Z,100904.06
2022-10-04T22:55:00.502Z,100897.91
2022-10-04T22:57:29.176Z,100901.41
2022-10-04T22:59:58.577Z,100901.41
2022-10-04T23:02:32.113Z,100901.41
2022-10-04T23:05:10.646Z,100882.00
2022-10-04T23:07:39.384Z,100904.31
2022-10-04T23:10:08.431Z,100893.06
2022-10-04T23:12:36.512Z,100886.91
2022-10-04T23:15:08.199Z,100888.50
2022-10-04T23:17:37.952Z,100886.09
2022-10-04T23:20:14.076Z,100891.19
2022-10-04T23:22:45.044Z,100889.56
2022-10-04T23:25:18.177Z,100896.78
2022-10-04T23:27:46.727Z,100888.16
2022-10-04T23:30:19.123Z,100886.09
2022-10-04T23:32:49.250Z,100878.28
2022-10-04T23:35:22.013Z,100885.25
2022-10-04T23:37:50.577Z,100870.50
2022-10-04T23:40:22.256Z,100871.56
2022-10-04T23:42:52.263Z,100870.50
2022-10-04T23:45:24.071Z,100875.84
2022-10-04T23:47:55.380Z,100877.72
2022-10-04T23:50:27.181Z,100882.25
2022-10-04T23:53:02.352Z,100887.00
2022-10-04T23:55:34.146Z,100880.63
2022-10-04T23:58:02.715Z,100870.94
